createdAt,value
2022-12-04T12:23:44.308Z,93605.97
2022-12-04T12:26:18.889Z,93606.72
2022-12-04T12:29:00.935Z,93598.88
2022-12-04T12:32:06.527Z,93602.47
2022-12-04T12:38:46.106Z,93572.88
2022-12-04T12:41:20.226Z,93574.94
2022-12-04T12:43:53.899Z,93585.03
2022-12-04T12:46:33.193Z,93613.16
2022-12-04T12:49:03.725Z,93646.56
2022-12-04T12:51:38.607Z,93638.75
2022-12-04T12:54:14.882Z,93636.38
2022-12-04T12:56:49.404Z,93634.09
2022-12-04T12:59:25.721Z,93640.78
2022-12-04T13:02:00.885Z,93638.47
2022-12-04T13:04:37.400Z,93632.81
2022-12-04T13:07:32.047Z,93626.56
2022-12-04T13:10:12.065Z,93618.84
2022-12-04T13:12:50.461Z,93622.69
2022-12-04T13:15:20.231Z,93633.72
2022-12-04T13:17:49.725Z,93650.47
2022-12-04T13:20:26.499Z,93662.97
2022-12-04T13:23:41.054Z,93660.47
2022-12-04T13:26:20.852Z,93649.53
2022-12-04T13:29:03.920Z,93656.88
2022-12-04T13:31:53.434Z,93656.66
2022-12-04T13:34:28.970Z,93668.41
2022-12-04T13:37:18.122Z,93669.44
2022-12-04T13:40:15.448Z,93668.06
2022-12-04T13:42:44.389Z,93655.97
2022-12-04T13:45:22.722Z,93655.72
2022-12-04T13:47:59.804Z,93645.78
2022-12-04T13:50:27.216Z,93638.84
2022-12-04T13:52:55.113Z,93636.06
2022-12-04T13:55:33.239Z,93626.13
2022-12-04T13:58:25.909Z,93628.88
2022-12-04T14:01:02.186Z,93635.66
2022-12-04T14:03:44.464Z,93634.22
2022-12-04T14:06:26.374Z,93630.38
2022-12-04T14:08:57.510Z,93628.03
2022-12-04T14:11:24.810Z,93629.09
2022-12-04T14:13:56.852Z,93631.59
2022-12-04T14:16:29.083Z,93631.72
2022-12-04T14:19:01.032Z,93635.19
2022-12-04T14:21:42.452Z,93639.59
2022-12-04T14:24:28.273Z,93632.91
2022-12-04T14:27:11.161Z,93629.31
2022-12-04T14:29:48.514Z,93635.09
2022-12-04T14:32:18.104Z,93632.88
2022-12-04T14:34:45.164Z,93627.63
2022-12-04T14:37:21.316Z,93629.91
2022-12-04T14:39:48.799Z,93630.19
2022-12-04T14:42:27.319Z,93638.25
2022-12-04T14:44:56.438Z,93633.44
2022-12-04T14:47:42.239Z,93629.81
2022-12-04T14:50:14.928Z,93633.88
2022-12-04T14:52:59.023Z,93643.25
2022-12-04T14:56:07.255Z,93644.31
2022-12-04T14:58:34.683Z,93647.38
2022-12-04T15:01:07.538Z,93656.59
2022-12-04T15:03:36.947Z,93653.28
2022-12-04T15:06:10.919Z,93656.25
2022-12-04T15:08:52.115Z,93648.53
2022-12-04T15:11:39.491Z,93646.34
2022-12-04T15:14:13.845Z,93640.34
2022-12-04T15:16:40.894Z,93644.34
2022-12-04T15:19:18.617Z,93640.88
2022-12-04T15:21:45.523Z,93636.09
2022-12-04T15:24:23.526Z,93633.84
2022-12-04T15:26:51.698Z,93630.63
2022-12-04T15:29:23.936Z,93631.91
2022-12-04T15:31:56.661Z,93633.72
2022-12-04T15:34:37.780Z,93637.91
2022-12-04T15:37:07.960Z,93631.91
2022-12-04T15:39:35.821Z,93645.22
2022-12-04T15:42:14.816Z,93643.91
2022-12-04T15:45:08.822Z,93644.69
2022-12-04T15:47:47.990Z,93636.00
2022-12-04T15:50:17.804Z,93635.66
2022-12-04T15:53:07.894Z,93631.22
2022-12-04T15:55:48.913Z,93644.88
2022-12-04T15:58:22.486Z,93642.88
2022-12-04T16:00:55.573Z,93639.22
2022-12-04T16:03:25.907Z,93640.44
2022-12-04T16:06:06.695Z,93639.03
2022-12-04T16:08:39.035Z,93643.03
2022-12-04T16:11:17.985Z,93652.66
2022-12-04T16:13:44.934Z,93647.81
2022-12-04T16:16:16.997Z,93648.84
2022-12-04T16:18:44.103Z,93653.19
2022-12-04T16:21:17.917Z,93655.25
2022-12-04T16:23:45.380Z,93651.91
2022-12-04T16:26:16.878Z,93649.72
2022-12-04T16:28:44.200Z,93655.47
2022-12-04T16:31:11.892Z,93654.88
2022-12-04T16:33:39.007Z,93652.59
2022-12-04T16:36:06.396Z,93649.41
2022-12-04T16:38:33.160Z,93651.56
2022-12-04T16:41:00.027Z,93647.66
2022-12-04T16:43:26.712Z,93650.09
2022-12-04T16:45:54.662Z,93654.34
2022-12-04T16:48:21.279Z,93646.78
2022-12-04T16:50:48.498Z,93644.19
2022-12-04T16:53:17.653Z,93645.81
2022-12-04T16:55:46.741Z,93642.16
2022-12-04T16:58:13.753Z,93646.09
2022-12-04T17:00:43.918Z,93640.28
2022-12-04T17:03:28.728Z,93641.22
2022-12-04T17:05:55.898Z,93640.97
2022-12-04T17:08:23.084Z,93650.66
2022-12-04T17:10:50.464Z,93660.06
2022-12-04T17:13:18.424Z,93663.97
2022-12-04T17:15:45.237Z,93666.94
2022-12-04T17:18:16.330Z,93657.91
2022-12-04T17:20:47.226Z,93666.16
2022-12-04T17:23:14.003Z,93675.44
2022-12-04T17:25:40.682Z,93666.59
2022-12-04T17:28:07.804Z,93678.41
2022-12-04T17:30:36.480Z,93687.81
2022-12-04T17:33:04.450Z,93688.50
2022-12-04T17:35:31.543Z,93691.28
2022-12-04T17:38:03.919Z,93695.97
2022-12-04T17:40:32.723Z,93699.28
2022-12-04T17:42:59.552Z,93695.28
2022-12-04T17:45:26.264Z,93702.31
2022-12-04T17:47:52.888Z,93699.53
2022-12-04T17:50:19.522Z,93694.75
2022-12-04T17:52:46.251Z,93693.59
2022-12-04T17:55:12.988Z,93687.81
2022-12-04T17:57:39.638Z,93688.13
2022-12-04T18:00:09.117Z,93685.63
2022-12-04T18:02:39.055Z,93693.19
2022-12-04T18:07:28.641Z,93700.56
2022-12-04T18:09:55.779Z,93712.16
2022-12-04T18:12:22.675Z,93721.81
2022-12-04T18:14:49.526Z,93720.66
2022-12-04T18:17:17.852Z,93707.38
2022-12-04T18:19:54.207Z,93710.84
2022-12-04T18:22:20.991Z,93715.69
2022-12-04T18:24:49.339Z,93732.22
2022-12-04T18:27:16.455Z,93735.44
2022-12-04T18:29:43.570Z,93725.19
2022-12-04T18:32:10.275Z,93724.81
2022-12-04T18:34:37.074Z,93720.66
2022-12-04T18:37:04.211Z,93726.56
2022-12-04T18:39:31.680Z,93730.13
2022-12-04T18:41:58.363Z,93732.03
2022-12-04T18:44:26.113Z,93735.53
2022-12-04T18:46:53.560Z,93749.94
2022-12-04T18:49:20.806Z,93751.69
2022-12-04T18:51:49.925Z,93754.63
2022-12-04T18:54:23.091Z,93757.88
2022-12-04T18:56:50.845Z,93766.47
2022-12-04T18:59:24.166Z,93769.63
2022-12-04T19:01:51.147Z,93759.44
2022-12-04T19:04:19.581Z,93755.69
2022-12-04T19:06:51.537Z,93756.03
2022-12-04T19:09:35.493Z,93748.38
2022-12-04T19:12:09.158Z,93742.13
2022-12-04T19:14:36.211Z,93739.91
2022-12-04T19:17:02.955Z,93739.72
2022-12-04T19:19:31.716Z,93740.53
2022-12-04T19:21:59.320Z,93735.69
2022-12-04T19:24:26.026Z,93730.03
2022-12-04T19:26:54.409Z,93729.00
2022-12-04T19:29:21.316Z,93749.06
2022-12-04T19:31:48.120Z,93739.16
2022-12-04T19:34:15.255Z,93744.72
2022-12-04T19:36:42.980Z,93754.38
2022-12-04T19:39:10.384Z,93757.50
2022-12-04T19:41:38.630Z,93762.13
2022-12-04T19:44:26.402Z,93768.38
2022-12-04T19:46:52.706Z,93770.44
2022-12-04T19:49:19.579Z,93776.91
2022-12-04T19:51:47.832Z,93773.19
2022-12-04T19:54:16.000Z,93774.75
2022-12-04T19:56:45.929Z,93781.25
2022-12-04T19:59:13.241Z,93782.03
2022-12-04T20:01:40.218Z,93770.91
2022-12-04T20:04:08.247Z,93768.13
2022-12-04T20:06:37.851Z,93769.59
2022-12-04T20:09:07.626Z,93782.22
2022-12-04T20:11:36.060Z,93776.47
2022-12-04T20:14:03.772Z,93764.38
2022-12-04T20:16:33.623Z,93772.38
2022-12-04T20:19:02.913Z,93771.34
2022-12-04T20:21:31.906Z,93774.34
2022-12-04T20:24:02.531Z,93773.00
2022-12-04T20:26:35.693Z,93770.13
2022-12-04T20:29:02.491Z,93760.19
2022-12-04T20:31:35.172Z,93763.06
2022-12-04T20:34:05.221Z,93768.38
2022-12-04T20:36:36.698Z,93772.13
2022-12-04T20:39:04.708Z,93782.31
2022-12-04T20:41:33.396Z,93781.69
2022-12-04T20:44:02.744Z,93781.25
2022-12-04T20:46:35.148Z,93773.34
2022-12-04T20:49:05.799Z,93769.25
2022-12-04T20:51:35.410Z,93768.81
2022-12-04T20:54:03.331Z,93771.78
2022-12-04T20:56:34.272Z,93766.84
2022-12-04T20:59:03.891Z,93768.72
2022-12-04T21:01:31.071Z,93773.34
2022-12-04T21:04:02.055Z,93776.13
2022-12-04T21:06:35.000Z,93779.25
2022-12-04T21:09:08.066Z,93770.97
2022-12-04T21:11:38.024Z,93770.56
2022-12-04T21:14:28.808Z,93773.34
2022-12-04T21:16:55.927Z,93767.97
2022-12-04T21:19:23.349Z,93768.91
2022-12-04T21:21:50.598Z,93766.75
2022-12-04T21:24:20.205Z,93774.22
2022-12-04T21:26:53.775Z,93780.84
2022-12-04T21:29:21.495Z,93790.50
2022-12-04T21:31:48.491Z,93795.19
2022-12-04T21:34:17.102Z,93799.19
2022-12-04T21:36:44.131Z,93797.53
2022-12-04T21:39:13.327Z,93802.91
2022-12-04T21:41:58.638Z,93801.34
2022-12-04T21:44:25.272Z,93808.22
2022-12-04T21:46:51.995Z,93796.56
2022-12-04T21:49:19.857Z,93801.88
2022-12-04T21:52:01.802Z,93793.34
2022-12-04T21:54:29.622Z,93800.22
2022-12-04T21:56:57.397Z,93803.09
2022-12-04T21:59:25.413Z,93801.78
2022-12-04T22:01:53.347Z,93799.69
2022-12-04T22:04:22.774Z,93807.34
2022-12-04T22:06:49.844Z,93811.06
2022-12-04T22:09:17.403Z,93820.34
2022-12-04T22:11:44.295Z,93813.59
2022-12-04T22:14:11.906Z,93812.66
2022-12-04T22:16:42.722Z,93812.56
2022-12-04T22:19:10.789Z,93812.34
2022-12-04T22:21:37.452Z,93827.50
2022-12-04T22:24:04.809Z,93830.03
2022-12-04T22:26:32.277Z,93829.88
2022-12-04T22:28:59.372Z,93830.03
2022-12-04T22:31:28.238Z,93836.03
2022-12-04T22:33:56.726Z,93831.09
2022-12-04T22:36:29.053Z,93839.25
2022-12-04T22:39:09.288Z,93846.31
2022-12-04T22:41:36.347Z,93863.97
2022-12-04T22:44:03.306Z,93871.16
2022-12-04T22:46:30.045Z,93882.47
2022-12-04T22:48:58.660Z,93880.06
2022-12-04T22:51:25.396Z,93882.94
2022-12-04T22:53:54.078Z,93883.72
2022-12-04T22:56:26.703Z,93887.66
2022-12-04T22:58:54.271Z,93891.81
2022-12-04T23:01:26.572Z,93891.81
2022-12-04T23:03:53.678Z,93896.06
2022-12-04T23:06:28.514Z,93892.69
2022-12-04T23:09:01.139Z,93891.72
2022-12-04T23:11:28.396Z,93898.59
2022-12-04T23:14:00.140Z,93898.25
2022-12-04T23:16:28.875Z,93893.38
2022-12-04T23:18:56.072Z,93891.47
2022-12-04T23:21:23.445Z,93889.81
2022-12-04T23:23:52.452Z,93893.81
2022-12-04T23:26:31.493Z,93900.06
2022-12-04T23:28:58.656Z,93898.34
2022-12-04T23:31:25.873Z,93908.03
2022-12-04T23:33:52.565Z,93912.38
2022-12-04T23:36:19.467Z,93911.50
2022-12-04T23:38:46.401Z,93916.47
2022-12-04T23:41:19.099Z,93910.19
2022-12-04T23:43:46.612Z,93912.97
2022-12-04T23:46:16.098Z,93923.84
2022-12-04T23:48:44.289Z,93931.94
2022-12-04T23:51:13.524Z,93932.44
2022-12-04T23:53:40.293Z,93935.22
2022-12-04T23:56:11.278Z,93941.41
2022-12-04T23:58:38.468Z,93940.03
